Language: 


Des rapports , des résumés tant et plus, au choix de chacun....


Données statistiques de la station
Quotidien Rapport Janvier 20, 2018 Unités:  Anglais    Métrique   les deux
« Précédent Jour
Suivant Jour »
Quotidien Hebdomadaire Mensuel Annuel Actuel
  Haut: Bas: Moyen:
Température: TemperatureC °F 0.3 °F 3.6 °F
Pt de rosée: DewpointC °F 0.0 °F 3.6 °F
Humidité: Humidity % 93 % 97 %
Vitesse du vent: WindSpeedKMH mph 0.0 mph 3.2 mph
Rafales: WindSpeedGustKMH mph - -
Vent:- - SSE
Pression: PressurehPa in 996.2 in -
Précipitation: 7.1 in    
Historical Graphs
 
 
Données statistiques pour Janvier 20, 2018
Heure Température Point de rosée Pression Vent Vitesse du vent Refales Humidité Pluie (taux horaire)
TemperatureC °F DewpointC °F PressurehPa in Calm     Humidity % HourlyPrecipMM in
00:03 0.8 °F 0.0 °F 1010.0 in Calm   6.9 mph 93 % 0.0 in
00:08 0.9 °F 0.0 °F 1010.0 in Calm   6.9 mph 94 % 0.0 in
00:13 0.9 °F 0.0 °F 1010.0 in WSW 2.6 mph 5.8 mph 94 % 0.0 in
00:18 1.0 °F 0.0 °F 1010.0 in Calm   2.6 mph 94 % 0.0 in
00:23 1.0 °F 0.0 °F 1010.0 in West 6.9 mph 6.9 mph 94 % 0.0 in
00:28 1.1 °F 0.0 °F 1010.0 in Calm   7.6 mph 94 % 0.0 in
00:33 1.1 °F 0.0 °F 1009.0 in WSW 4.7 mph 7.6 mph 94 % 0.0 in
00:38 1.2 °F 1.0 °F 1009.0 in Calm   6.1 mph 94 % 0.0 in
00:43 1.2 °F 1.0 °F 1009.0 in Calm   6.1 mph 94 % 0.0 in
00:48 1.3 °F 1.0 °F 1009.0 in Calm   4.3 mph 95 % 0.0 in
00:53 1.3 °F 1.0 °F 1009.0 in Calm   4.3 mph 95 % 0.0 in
00:58 1.3 °F 1.0 °F 1009.0 in Calm   5.0 mph 95 % 0.0 in
01:03 1.2 °F 1.0 °F 1009.0 in Calm   5.0 mph 95 % 0.0 in
01:08 1.2 °F 1.0 °F 1009.0 in West 4.3 mph 5.0 mph 94 % 0.0 in
01:14 1.2 °F 1.0 °F 1009.0 in Calm   6.9 mph 94 % 0.0 in
01:19 1.2 °F 1.0 °F 1009.0 in Calm   6.9 mph 94 % 0.0 in
01:24 1.2 °F 1.0 °F 1009.0 in SW 1.8 mph 6.4 mph 94 % 0.0 in
01:29 1.2 °F 1.0 °F 1009.0 in WSW 8.7 mph 8.7 mph 95 % 0.0 in
01:34 1.4 °F 1.0 °F 1009.0 in Calm   8.7 mph 95 % 0.0 in
01:39 1.6 °F 1.0 °F 1009.0 in Calm   7.9 mph 96 % 0.0 in
01:44 1.6 °F 1.0 °F 1008.0 in WSW 5.8 mph 9.0 mph 96 % 0.0 in
01:49 1.7 °F 1.0 °F 1008.0 in Calm   9.0 mph 96 % 0.0 in
01:54 1.6 °F 1.0 °F 1008.0 in Calm   8.7 mph 96 % 0.0 in
01:59 1.6 °F 1.0 °F 1009.0 in Calm   1.8 mph 96 % 0.0 in
02:04 1.6 °F 1.0 °F 1009.0 in Calm   4.0 mph 96 % 0.0 in
02:09 1.5 °F 1.0 °F 1009.0 in WSW 4.3 mph 5.5 mph 95 % 0.0 in
02:14 1.4 °F 1.0 °F 1009.0 in Calm   5.5 mph 95 % 0.0 in
02:19 1.3 °F 1.0 °F 1009.0 in Calm   2.1 mph 95 % 0.0 in
02:24 1.1 °F 0.0 °F 1009.0 in Calm     94 % 0.0 in
02:29 1.1 °F 1.0 °F 1008.0 in Calm   4.0 mph 95 % 0.0 in
02:34 1.0 °F 0.0 °F 1008.0 in Calm   4.0 mph 94 % 0.0 in
02:39 0.9 °F 1.0 °F 1008.0 in Calm   2.1 mph 95 % 0.0 in
02:44 0.7 °F 0.0 °F 1009.0 in Calm     94 % 0.0 in
02:49 0.5 °F 0.0 °F 1009.0 in Calm   2.6 mph 94 % 0.0 in
02:54 0.4 °F 0.0 °F 1009.0 in Calm   2.6 mph 94 % 0.0 in
02:59 0.4 °F 0.0 °F 1009.0 in Calm   2.6 mph 94 % 0.0 in
03:04 0.3 °F 0.0 °F 1009.0 in Calm   2.6 mph 95 % 0.0 in
03:09 0.3 °F 0.0 °F 1009.0 in Calm     95 % 0.0 in
03:14 0.3 °F 0.0 °F 1009.0 in Calm     95 % 0.0 in
03:20 0.3 °F 0.0 °F 1009.0 in Calm     96 % 0.0 in
03:25 0.4 °F 0.0 °F 1009.0 in Calm     96 % 0.0 in
03:30 0.4 °F 0.0 °F 1008.0 in Calm     97 % 0.0 in
03:35 0.4 °F 0.0 °F 1008.0 in Calm     97 % 0.0 in
03:40 0.5 °F 1.0 °F 1008.0 in Calm   6.1 mph 97 % 0.0 in
03:45 0.8 °F 1.0 °F 1008.0 in Calm   6.1 mph 98 % 0.0 in
03:50 0.8 °F 1.0 °F 1008.0 in SSW 3.2 mph 3.5 mph 98 % 0.0 in
03:55 0.8 °F 1.0 °F 1008.0 in North 5.5 mph 5.5 mph 98 % 0.0 in
04:00 0.9 °F 1.0 °F 1007.0 in South 4.3 mph 7.6 mph 98 % 0.0 in
04:05 1.0 °F 1.0 °F 1007.0 in Calm   7.6 mph 98 % 0.0 in
04:10 1.0 °F 1.0 °F 1007.0 in Calm   6.9 mph 98 % 0.0 in
04:15 1.1 °F 1.0 °F 1008.0 in Calm   2.6 mph 98 % 0.0 in
04:20 1.1 °F 1.0 °F 1008.0 in Calm     98 % 0.0 in
04:25 1.2 °F 1.0 °F 1008.0 in Calm     98 % 0.0 in
04:30 1.3 °F 1.0 °F 1007.0 in Calm   4.7 mph 98 % 0.0 in
04:35 1.3 °F 1.0 °F 1007.0 in Calm   5.0 mph 98 % 0.0 in
04:40 1.3 °F 1.0 °F 1007.0 in SSW 3.5 mph 5.0 mph 98 % 0.0 in
04:45 1.4 °F 1.0 °F 1007.0 in Calm   5.0 mph 98 % 0.0 in
04:50 1.5 °F 2.0 °F 1007.0 in SSW 5.0 mph 5.0 mph 98 % 0.0 in
04:55 1.6 °F 2.0 °F 1007.0 in SSW 6.1 mph 7.6 mph 98 % 0.0 in
05:01 1.8 °F 2.0 °F 1007.0 in South 5.5 mph 10.5 mph 98 % 0.0 in
05:06 2.0 °F 2.0 °F 1007.0 in South 7.9 mph 10.5 mph 98 % 0.0 in
05:11 2.1 °F 2.0 °F 1007.0 in SSW 6.9 mph 10.5 mph 98 % 0.0 in
05:16 2.2 °F 2.0 °F 1007.0 in SSW 10.5 mph 10.8 mph 98 % 0.0 in
05:21 2.4 °F 3.0 °F 1007.0 in SW 9.7 mph 15.8 mph 98 % 0.3 in
05:26 2.6 °F 3.0 °F 1007.0 in Calm   15.8 mph 98 % 0.5 in
05:31 2.7 °F 3.0 °F 1007.0 in SW 4.7 mph 13.0 mph 98 % 0.5 in
05:36 2.7 °F 3.0 °F 1007.0 in Calm   10.5 mph 98 % 0.5 in
05:41 2.8 °F 3.0 °F 1007.0 in SW 7.6 mph 8.7 mph 98 % 0.5 in
05:46 2.8 °F 3.0 °F 1006.0 in SSW 1.4 mph 8.7 mph 98 % 0.5 in
05:51 2.8 °F 3.0 °F 1006.0 in South 5.5 mph 6.9 mph 98 % 0.5 in
05:56 2.8 °F 3.0 °F 1006.0 in SSW 5.0 mph 10.5 mph 98 % 0.5 in
06:01 2.8 °F 3.0 °F 1006.0 in SW 4.7 mph 10.5 mph 98 % 0.5 in
06:06 2.8 °F 3.0 °F 1006.0 in South 5.8 mph 10.5 mph 98 % 0.5 in
06:11 2.9 °F 3.0 °F 1006.0 in SSW 5.8 mph 10.8 mph 98 % 0.5 in
06:16 2.9 °F 3.0 °F 1005.0 in Calm   10.8 mph 98 % 0.5 in
06:21 2.9 °F 3.0 °F 1005.0 in SSW 6.9 mph 10.1 mph 98 % 0.5 in
06:26 3.0 °F 3.0 °F 1005.0 in South 2.6 mph 10.1 mph 98 % 0.3 in
06:31 3.0 °F 3.0 °F 1005.0 in South 4.0 mph 10.1 mph 98 % 0.3 in
06:36 3.0 °F 3.0 °F 1005.0 in SSW 1.8 mph 12.2 mph 98 % 0.3 in
06:41 3.1 °F 3.0 °F 1005.0 in South 4.7 mph 12.2 mph 98 % 0.3 in
06:46 3.1 °F 3.0 °F 1005.0 in SSW 9.0 mph 9.0 mph 98 % 0.3 in
06:51 3.1 °F 3.0 °F 1005.0 in Calm   9.0 mph 98 % 0.5 in
06:56 3.1 °F 3.0 °F 1005.0 in South 6.9 mph 7.9 mph 98 % 0.5 in
07:01 3.1 °F 3.0 °F 1005.0 in South 7.9 mph 10.1 mph 98 % 0.5 in
07:07 3.1 °F 3.0 °F 1005.0 in South 4.3 mph 10.8 mph 98 % 0.5 in
07:12 3.2 °F 3.0 °F 1005.0 in South 6.9 mph 10.8 mph 98 % 0.5 in
07:17 3.2 °F 3.0 °F 1005.0 in South 6.9 mph 10.5 mph 98 % 0.5 in
07:22 3.3 °F 3.0 °F 1005.0 in South 7.6 mph 16.6 mph 98 % 0.3 in
07:27 3.3 °F 3.0 °F 1005.0 in South 9.0 mph 16.6 mph 98 % 0.3 in
07:32 3.3 °F 3.0 °F 1005.0 in South 6.4 mph 10.5 mph 98 % 0.8 in
07:37 3.3 °F 3.0 °F 1005.0 in South 12.6 mph 13.7 mph 98 % 0.8 in
07:42 3.4 °F 3.0 °F 1005.0 in South 8.7 mph 19.5 mph 98 % 0.8 in
07:47 3.4 °F 3.0 °F 1003.9 in SSW 9.7 mph 19.5 mph 98 % 0.8 in
07:52 3.4 °F 3.0 °F 1003.9 in South 4.7 mph 14.0 mph 98 % 0.3 in
07:57 3.4 °F 3.0 °F 1003.9 in SSW 4.7 mph 10.8 mph 98 % 0.3 in
08:02 3.5 °F 4.0 °F 1003.9 in SSW 5.0 mph 12.2 mph 98 % 0.3 in
08:07 3.5 °F 4.0 °F 1003.9 in South 5.0 mph 12.2 mph 98 % 0.3 in
08:12 3.6 °F 4.0 °F 1003.9 in South 8.7 mph 11.1 mph 98 % 0.8 in
08:17 3.5 °F 4.0 °F 1003.9 in SSW 6.1 mph 11.1 mph 98 % 0.8 in
08:22 3.5 °F 4.0 °F 1003.9 in South 6.9 mph 10.1 mph 98 % 0.8 in
08:27 3.5 °F 4.0 °F 1003.9 in SSE 6.4 mph 8.7 mph 98 % 0.8 in
08:32 3.5 °F 4.0 °F 1002.9 in SSW 8.7 mph 8.7 mph 98 % 0.3 in
08:37 3.5 °F 4.0 °F 1002.9 in SSE 6.1 mph 8.7 mph 98 % 0.3 in
08:42 3.5 °F 4.0 °F 1002.9 in South 6.1 mph 10.1 mph 98 % 0.3 in
08:47 3.5 °F 4.0 °F 1002.9 in SSW 6.9 mph 10.1 mph 98 % 0.3 in
08:53 3.5 °F 4.0 °F 1002.9 in South 6.9 mph 9.7 mph 98 % 0.5 in
08:58 3.6 °F 4.0 °F 1002.9 in Calm   10.5 mph 98 % 0.5 in
09:03 3.6 °F 4.0 °F 1002.9 in Calm   10.5 mph 98 % 0.5 in
09:08 3.6 °F 4.0 °F 1002.9 in SSW 7.6 mph 9.3 mph 98 % 0.3 in
09:13 3.6 °F 4.0 °F 1002.9 in South 5.8 mph 9.3 mph 98 % 0.3 in
09:18 3.6 °F 4.0 °F 1001.9 in SSW 10.5 mph 10.5 mph 98 % 0.3 in
09:23 3.7 °F 4.0 °F 1001.9 in SSW 6.1 mph 10.5 mph 98 % 0.3 in
09:28 3.7 °F 4.0 °F 1001.9 in SSW 9.7 mph 10.5 mph 98 % 0.3 in
09:33 3.7 °F 4.0 °F 1001.9 in South 6.1 mph 10.1 mph 98 % 0.3 in
09:38 3.8 °F 4.0 °F 1001.9 in South 9.3 mph 12.6 mph 98 % 0.3 in
09:43 3.8 °F 4.0 °F 1001.9 in SSE 8.7 mph 12.6 mph 98 % 0.3 in
09:48 3.8 °F 4.0 °F 1003.9 in South 9.0 mph 10.5 mph 98 % 0.3 in
09:53 3.9 °F 4.0 °F 1003.9 in South 3.2 mph 10.5 mph 98 % 0.0 in
09:58 3.9 °F 4.0 °F 1003.9 in Calm   9.0 mph 98 % 0.3 in
10:03 3.9 °F 4.0 °F 1001.9 in SSE 4.3 mph 12.2 mph 98 % 0.3 in
10:08 3.9 °F 4.0 °F 1001.9 in Calm   12.2 mph 98 % 0.3 in
10:13 4.0 °F 4.0 °F 1001.9 in South 6.1 mph 8.7 mph 98 % 0.3 in
10:18 4.0 °F 4.0 °F 1001.9 in Calm   8.7 mph 98 % 0.3 in
10:23 4.0 °F 4.0 °F 1001.9 in South 6.4 mph 9.0 mph 98 % 0.3 in
10:28 4.0 °F 4.0 °F 1001.9 in South 3.2 mph 9.7 mph 98 % 0.3 in
10:33 4.0 °F 4.0 °F 1001.9 in South 1.4 mph 9.7 mph 98 % 0.3 in
10:38 4.1 °F 4.0 °F 1001.9 in South 6.1 mph 12.6 mph 98 % 0.3 in
10:39 4.1 °F 4.0 °F 1001.9 in SSE 2.6 mph 12.6 mph 98 % 0.3 in
10:44 4.1 °F 4.0 °F 1001.9 in Calm   12.6 mph 98 % 0.5 in
10:49 4.1 °F 4.0 °F 1001.9 in South 6.9 mph 9.3 mph 98 % 0.5 in
10:54 4.1 °F 4.0 °F 1001.9 in SSE 2.6 mph 9.3 mph 98 % 0.5 in
10:59 4.2 °F 4.0 °F 1000.9 in Calm   9.0 mph 98 % 0.3 in
11:04 4.2 °F 4.0 °F 1000.9 in Calm   7.2 mph 98 % 0.5 in
11:09 4.3 °F 4.0 °F 1000.9 in South 7.6 mph 7.6 mph 98 % 0.5 in
11:14 4.3 °F 4.0 °F 1000.9 in SSE 4.3 mph 7.9 mph 98 % 0.5 in
11:19 4.3 °F 4.0 °F 1000.9 in Calm   7.9 mph 98 % 0.5 in
11:24 4.3 °F 4.0 °F 1000.9 in Calm   9.3 mph 98 % 0.8 in
11:29 4.4 °F 4.0 °F 999.9 in SSE 4.7 mph 9.3 mph 98 % 0.8 in
11:34 4.4 °F 4.0 °F 999.9 in Calm   7.2 mph 98 % 1.3 in
11:39 4.4 °F 4.0 °F 999.9 in South 6.1 mph 6.4 mph 98 % 1.3 in
11:44 4.5 °F 5.0 °F 1000.9 in Calm   6.1 mph 98 % 1.0 in
11:49 4.5 °F 5.0 °F 1000.9 in Calm   6.9 mph 98 % 1.3 in
11:54 4.6 °F 5.0 °F 1000.9 in ESE 4.0 mph 10.5 mph 98 % 1.3 in
11:59 4.6 °F 5.0 °F 999.9 in SSE 4.7 mph 10.5 mph 98 % 1.3 in
12:04 4.7 °F 5.0 °F 999.9 in Calm   10.1 mph 98 % 1.0 in
12:09 4.7 °F 5.0 °F 999.9 in Calm   9.7 mph 98 % 1.0 in
12:14 4.7 °F 5.0 °F 999.9 in SSE 1.8 mph 10.1 mph 98 % 1.3 in
12:19 4.7 °F 5.0 °F 999.9 in Calm   10.1 mph 98 % 1.0 in
12:25 4.8 °F 5.0 °F 999.9 in Calm   5.5 mph 98 % 1.0 in
12:30 4.8 °F 5.0 °F 998.9 in Calm   6.9 mph 98 % 1.0 in
12:35 4.9 °F 5.0 °F 998.9 in ESE 4.3 mph 6.9 mph 98 % 0.5 in
12:40 4.9 °F 5.0 °F 998.9 in South 6.4 mph 10.5 mph 98 % 0.5 in
12:45 5.0 °F 5.0 °F 997.9 in Calm   10.5 mph 98 % 0.8 in
12:50 5.0 °F 5.0 °F 997.9 in East 3.2 mph 6.4 mph 98 % 0.5 in
12:55 5.0 °F 5.0 °F 997.9 in ESE 2.1 mph 6.4 mph 98 % 0.5 in
13:00 5.0 °F 5.0 °F 998.9 in ESE 2.1 mph 6.4 mph 98 % 0.5 in
13:05 5.0 °F 5.0 °F 998.9 in Calm   6.4 mph 98 % 0.5 in
13:10 5.1 °F 5.0 °F 998.9 in ESE 4.7 mph 9.0 mph 98 % 0.3 in
13:15 5.1 °F 5.0 °F 998.9 in ESE 5.0 mph 9.7 mph 98 % 0.5 in
13:20 5.1 °F 5.0 °F 998.9 in SSE 5.0 mph 9.7 mph 98 % 0.5 in
13:25 5.1 °F 5.0 °F 998.9 in Calm   9.3 mph 98 % 0.5 in
13:30 5.2 °F 5.0 °F 997.9 in Calm   7.6 mph 98 % 0.5 in
13:35 5.2 °F 5.0 °F 997.9 in Calm   7.6 mph 98 % 0.5 in
13:40 5.3 °F 6.0 °F 997.9 in ESE 5.5 mph 7.6 mph 98 % 0.8 in
13:45 5.3 °F 6.0 °F 997.9 in ESE 4.7 mph 6.1 mph 98 % 0.5 in
13:50 5.4 °F 6.0 °F 997.9 in East 7.9 mph 7.9 mph 98 % 0.5 in
13:55 5.4 °F 6.0 °F 997.9 in East 2.1 mph 7.9 mph 98 % 0.5 in
13:56 5.4 °F 6.0 °F 997.9 in Calm   7.9 mph 98 % 0.5 in
14:01 5.4 °F 6.0 °F 997.9 in ENE 5.5 mph 6.9 mph 98 % 0.5 in
14:06 5.3 °F 6.0 °F 997.9 in Calm   6.9 mph 98 % 0.5 in
14:11 5.3 °F 6.0 °F 997.9 in ENE 3.2 mph 5.5 mph 98 % 0.5 in
14:16 5.3 °F 6.0 °F 997.9 in East 6.9 mph 7.2 mph 98 % 0.5 in
14:22 5.3 °F 6.0 °F 997.9 in Calm   7.2 mph 98 % 0.5 in
14:27 5.3 °F 6.0 °F 997.9 in Calm   9.0 mph 98 % 0.5 in
14:32 5.3 °F 6.0 °F 996.8 in East 5.5 mph 9.0 mph 98 % 0.5 in
14:37 5.4 °F 6.0 °F 996.8 in East 4.3 mph 6.4 mph 98 % 1.0 in
14:42 5.3 °F 6.0 °F 996.8 in NE 8.7 mph 9.0 mph 98 % 0.8 in
14:47 5.3 °F 6.0 °F 996.8 in ENE 4.0 mph 9.0 mph 98 % 0.8 in
14:52 5.4 °F 6.0 °F 996.8 in NE 4.0 mph 9.0 mph 98 % 0.8 in
14:57 5.4 °F 6.0 °F 996.8 in ESE 1.8 mph 9.0 mph 98 % 0.8 in
15:02 5.4 °F 6.0 °F 996.8 in East 5.8 mph 7.6 mph 98 % 0.8 in
15:07 5.5 °F 6.0 °F 996.8 in Calm   7.6 mph 98 % 0.3 in
15:12 5.6 °F 6.0 °F 996.8 in East 5.5 mph 7.6 mph 98 % 0.3 in
15:17 5.7 °F 6.0 °F 996.8 in Calm   7.6 mph 98 % 0.3 in
15:22 5.6 °F 6.0 °F 996.8 in Calm   8.7 mph 98 % 0.3 in
15:27 5.6 °F 6.0 °F 996.8 in ENE 2.1 mph 8.7 mph 98 % 0.3 in
15:32 5.5 °F 6.0 °F 996.2 in ENE 5.0 mph 6.9 mph 98 % 0.3 in
15:37 5.5 °F 6.0 °F 996.2 in Calm   6.9 mph 98 % 0.0 in
15:42 5.5 °F 6.0 °F 996.2 in Calm   5.5 mph 98 % 0.3 in
15:47 5.5 °F 6.0 °F 996.8 in Calm     98 % 0.3 in
15:52 5.5 °F 6.0 °F 996.8 in Calm   6.1 mph 98 % 0.3 in
15:58 5.4 °F 6.0 °F 996.8 in Calm   6.1 mph 98 % 0.3 in
16:03 5.4 °F 6.0 °F 996.8 in East 5.0 mph 5.0 mph 98 % 0.3 in
16:08 5.4 °F 6.0 °F 996.8 in Calm   5.0 mph 98 % 0.3 in
16:13 5.4 °F 6.0 °F 996.8 in Calm   5.0 mph 98 % 0.3 in
16:18 5.4 °F 6.0 °F 996.8 in Calm   5.5 mph 98 % 0.3 in
16:23 5.3 °F 6.0 °F 996.8 in Calm   5.8 mph 98 % 0.3 in
16:28 5.3 °F 6.0 °F 996.8 in Calm   5.8 mph 98 % 0.3 in
16:33 5.3 °F 6.0 °F 996.8 in Calm   5.5 mph 98 % 0.3 in
16:38 5.3 °F 6.0 °F 996.8 in Calm     98 % 0.3 in
16:43 5.3 °F 6.0 °F 996.8 in Calm     98 % 0.0 in
16:48 5.3 °F 6.0 °F 997.9 in Calm     98 % 0.0 in
16:53 5.3 °F 6.0 °F 997.9 in Calm     98 % 0.0 in
16:58 5.3 °F 6.0 °F 997.9 in Calm     98 % 0.0 in
17:03 5.2 °F 5.0 °F 997.9 in Calm     98 % 0.3 in
17:08 5.2 °F 5.0 °F 997.9 in Calm     98 % 0.3 in
17:13 5.1 °F 5.0 °F 997.9 in Calm   5.0 mph 98 % 0.3 in
17:18 5.1 °F 5.0 °F 997.9 in Calm   5.0 mph 98 % 0.3 in
17:23 5.0 °F 5.0 °F 997.9 in Calm     98 % 0.3 in
17:28 5.0 °F 5.0 °F 997.9 in Calm     98 % 0.3 in
17:33 5.0 °F 5.0 °F 997.9 in Calm     98 % 0.3 in
17:38 4.9 °F 5.0 °F 997.9 in Calm     98 % 0.3 in
17:44 4.9 °F 5.0 °F 997.9 in Calm     98 % 0.3 in
17:49 4.9 °F 5.0 °F 997.9 in Calm     98 % 0.3 in
17:54 4.8 °F 5.0 °F 997.9 in Calm     98 % 0.5 in
17:59 4.8 °F 5.0 °F 997.9 in Calm     98 % 0.5 in
18:04 4.8 °F 5.0 °F 997.9 in Calm     98 % 0.3 in
18:09 4.8 °F 5.0 °F 997.9 in Calm     98 % 0.3 in
18:14 4.8 °F 5.0 °F 998.9 in Calm     98 % 0.3 in
18:19 4.8 °F 5.0 °F 998.9 in Calm     98 % 0.3 in
18:24 4.8 °F 5.0 °F 998.9 in Calm     98 % 0.3 in
18:29 4.8 °F 5.0 °F 998.9 in Calm     98 % 0.3 in
18:34 4.8 °F 5.0 °F 998.9 in Calm     98 % 0.3 in
18:39 4.8 °F 5.0 °F 998.9 in Calm   4.0 mph 98 % 0.3 in
18:44 4.8 °F 5.0 °F 998.9 in Calm   5.8 mph 98 % 0.3 in
18:49 4.7 °F 5.0 °F 998.9 in Calm   6.4 mph 98 % 0.3 in
18:54 4.7 °F 5.0 °F 998.9 in Calm   6.4 mph 98 % 0.3 in
18:59 4.7 °F 5.0 °F 998.9 in Calm   5.5 mph 98 % 0.3 in
19:04 4.7 °F 5.0 °F 998.9 in Calm   3.2 mph 98 % 0.3 in
19:09 4.7 °F 5.0 °F 998.9 in NE 5.8 mph 5.8 mph 98 % 0.3 in
19:14 4.7 °F 5.0 °F 998.9 in NNE 1.4 mph 5.8 mph 98 % 0.3 in
19:19 4.6 °F 5.0 °F 998.9 in NE 4.0 mph 7.9 mph 98 % 0.3 in
19:24 4.6 °F 5.0 °F 998.9 in NE 9.0 mph 9.0 mph 98 % 0.3 in
19:29 4.6 °F 5.0 °F 998.9 in Calm   9.0 mph 98 % 0.3 in
19:34 4.6 °F 5.0 °F 998.9 in NE 6.9 mph 9.0 mph 98 % 0.3 in
19:39 4.6 °F 5.0 °F 998.9 in NE 6.9 mph 9.3 mph 98 % 0.3 in
19:44 4.5 °F 5.0 °F 999.9 in North 10.1 mph 10.1 mph 98 % 0.3 in
19:49 4.5 °F 5.0 °F 999.9 in Calm   10.1 mph 98 % 0.0 in
19:54 4.5 °F 5.0 °F 999.9 in NNE 1.4 mph 9.7 mph 98 % 0.0 in
20:00 4.5 °F 5.0 °F 999.9 in Calm   9.7 mph 98 % 0.0 in
20:05 4.4 °F 4.0 °F 999.9 in Calm   6.4 mph 98 % 0.0 in
20:10 4.4 °F 4.0 °F 999.9 in Calm   9.0 mph 98 % 0.0 in
20:15 4.4 °F 4.0 °F 1000.9 in NNE 2.6 mph 9.0 mph 98 % 0.0 in
20:20 4.4 °F 4.0 °F 1000.9 in NE 2.1 mph 10.1 mph 98 % 0.0 in
20:25 4.3 °F 4.0 °F 1000.9 in NNE 7.9 mph 11.9 mph 98 % 0.0 in
20:30 4.3 °F 4.0 °F 1000.9 in NNE 7.9 mph 11.9 mph 98 % 0.0 in
20:35 4.3 °F 4.0 °F 1000.9 in NE 8.7 mph 11.9 mph 98 % 0.0 in
20:40 4.3 °F 4.0 °F 1000.9 in North 7.9 mph 10.5 mph 98 % 0.0 in
20:45 4.2 °F 4.0 °F 1000.9 in NE 5.0 mph 11.6 mph 98 % 0.0 in
20:51 4.2 °F 4.0 °F 1000.9 in NNE 5.0 mph 11.6 mph 98 % 0.0 in
20:56 4.1 °F 4.0 °F 1000.9 in NNE 9.0 mph 10.5 mph 98 % 0.0 in
21:01 4.1 °F 4.0 °F 1000.9 in Calm   10.1 mph 98 % 0.0 in
21:06 4.1 °F 4.0 °F 1000.9 in NE 8.7 mph 10.1 mph 98 % 0.0 in
21:11 4.0 °F 4.0 °F 1000.9 in NE 2.6 mph 10.1 mph 98 % 0.0 in
21:16 4.0 °F 4.0 °F 1001.9 in NNW 9.3 mph 10.5 mph 98 % 0.0 in
21:21 4.0 °F 4.0 °F 1001.9 in ENE 5.5 mph 10.5 mph 98 % 0.0 in
21:26 3.9 °F 4.0 °F 1001.9 in NNE 4.3 mph 9.7 mph 98 % 0.0 in
21:31 3.9 °F 4.0 °F 1002.9 in NNE 4.3 mph 9.3 mph 98 % 0.0 in
21:36 3.8 °F 4.0 °F 1002.9 in NNE 4.7 mph 9.3 mph 98 % 0.0 in
21:41 3.8 °F 4.0 °F 1002.9 in North 2.1 mph 9.0 mph 98 % 0.0 in
21:46 3.8 °F 4.0 °F 1002.9 in North 6.9 mph 9.0 mph 98 % 0.0 in
21:51 3.8 °F 4.0 °F 1002.9 in NNE 8.7 mph 9.3 mph 98 % 0.0 in
21:56 3.8 °F 4.0 °F 1002.9 in North 6.1 mph 9.3 mph 98 % 0.0 in
22:01 3.7 °F 4.0 °F 1002.9 in North 7.9 mph 9.7 mph 98 % 0.0 in
22:06 3.7 °F 4.0 °F 1002.9 in NE 6.4 mph 12.2 mph 98 % 0.0 in
22:11 3.8 °F 4.0 °F 1002.9 in North 6.9 mph 12.2 mph 98 % 0.0 in
22:17 3.7 °F 4.0 °F 1002.9 in NNE 7.9 mph 11.9 mph 98 % 0.0 in
22:22 3.6 °F 4.0 °F 1002.9 in North 9.7 mph 13.0 mph 98 % 0.0 in
22:27 3.5 °F 4.0 °F 1002.9 in North 6.4 mph 16.9 mph 98 % 0.0 in
22:32 3.5 °F 4.0 °F 1003.9 in North 6.4 mph 16.9 mph 98 % 0.0 in
22:37 3.4 °F 3.0 °F 1003.9 in North 12.2 mph 12.6 mph 98 % 0.0 in
22:42 3.4 °F 3.0 °F 1003.9 in NE 10.5 mph 13.7 mph 98 % 0.0 in
22:47 3.4 °F 3.0 °F 1005.0 in North 13.7 mph 13.7 mph 98 % 0.0 in
22:52 3.4 °F 3.0 °F 1005.0 in NE 11.9 mph 13.7 mph 98 % 0.0 in
22:57 3.4 °F 3.0 °F 1005.0 in North 11.6 mph 13.7 mph 98 % 0.0 in
23:02 3.3 °F 3.0 °F 1003.9 in NNE 6.9 mph 11.9 mph 98 % 0.0 in
23:07 3.3 °F 3.0 °F 1003.9 in NNW 5.8 mph 11.6 mph 98 % 0.0 in
23:12 3.3 °F 3.0 °F 1003.9 in NNW 5.8 mph 7.6 mph 98 % 0.0 in
23:17 3.3 °F 3.0 °F 1005.0 in Calm   5.8 mph 98 % 0.0 in
23:22 3.3 °F 3.0 °F 1005.0 in North 1.4 mph 5.8 mph 98 % 0.0 in
23:28 3.3 °F 3.0 °F 1005.0 in Calm   1.4 mph 98 % 0.0 in
23:33 3.3 °F 3.0 °F 1005.0 in Calm   1.4 mph 98 % 0.0 in
23:38 3.3 °F 3.0 °F 1005.0 in Calm     98 % 0.0 in
23:43 3.3 °F 3.0 °F 1005.0 in Calm     98 % 0.0 in
23:48 3.3 °F 3.0 °F 1005.0 in Calm     98 % 0.0 in
23:53 3.2 °F 3.0 °F 1005.0 in Calm     98 % 0.0 in
23:58 3.3 °F 3.0 °F 1005.0 in Calm     98 % 0.0 in
Le Gheer Warneton
Courtoisie de Weather Underground - 2.25 mb

Mise a jour : 24/02/2018 22:35:11
Généré par Cumulus 1.9.4 (1099)